Time;durP1;ratioP1;P1;durP2;ratioP2;P2;SDS_P1;SDS_P2;PMS_P1;PMS_P2;Temp;Humidity;BMP_temperature;BMP_pressure;BME280_temperature;BME280_humidity;BME280_pressure;Samples;Min_cycle;Max_cycle;Signal;HPM_P1;HPM_P2
2022/12/25 00:00:00;;;;;;;4.30;2.08;;;7.90;99.90;;;;;;4952275;28;20236;-70
2022/12/25 00:02:28;;;;;;;3.00;2.25;;;7.90;99.90;;;;;;4952655;28;20207;-69
2022/12/25 00:04:55;;;;;;;2.42;1.98;;;7.80;99.90;;;;;;4952843;28;20206;-69
2022/12/25 00:07:21;;;;;;;4.43;2.42;;;7.80;99.90;;;;;;4952454;28;20716;-70
2022/12/25 00:09:48;;;;;;;2.03;1.83;;;7.80;99.90;;;;;;4952251;28;20206;-71
2022/12/25 00:12:17;;;;;;;2.42;1.98;;;7.80;99.90;;;;;;4959115;28;20204;-71
2022/12/25 00:14:43;;;;;;;1.90;1.80;;;7.80;99.90;;;;;;4971993;28;20585;-69
2022/12/25 00:17:10;;;;;;;2.03;1.83;;;7.90;99.90;;;;;;4971918;28;20202;-71
2022/12/25 00:19:37;;;;;;;4.13;1.67;;;7.90;99.90;;;;;;4971421;28;20714;-71
2022/12/25 00:22:03;;;;;;;1.85;1.70;;;7.80;99.90;;;;;;4971607;28;20207;-71
2022/12/25 00:24:30;;;;;;;1.83;1.58;;;7.90;99.90;;;;;;4972144;28;20218;-71
2022/12/25 00:26:57;;;;;;;2.08;1.88;;;7.90;99.90;;;;;;4972031;28;20579;-71
2022/12/25 00:29:25;;;;;;;3.10;1.70;;;7.80;99.90;;;;;;4971285;28;20223;-71
2022/12/25 00:31:52;;;;;;;2.35;2.15;;;7.90;99.90;;;;;;4971973;28;20211;-71
2022/12/25 00:34:18;;;;;;;2.70;2.30;;;7.90;99.90;;;;;;4971835;28;20218;-71
2022/12/25 00:36:45;;;;;;;2.05;1.83;;;7.90;99.90;;;;;;4971958;28;20671;-71
2022/12/25 00:39:12;;;;;;;3.10;2.45;;;7.90;99.90;;;;;;4971164;28;20225;-71
2022/12/25 00:44:22;;;;;;;2.00;1.80;;;7.90;99.90;;;;;;4971688;28;20716;-71
2022/12/25 00:46:50;;;;;;;3.90;1.83;;;7.90;99.90;;;;;;4972004;28;20203;-71
2022/12/25 00:49:17;;;;;;;2.22;1.85;;;7.90;99.90;;;;;;4970977;28;20231;-71
2022/12/25 00:51:44;;;;;;;1.95;1.80;;;7.90;99.90;;;;;;4971947;28;20918;-71
2022/12/25 00:54:10;;;;;;;2.95;1.95;;;7.90;99.90;;;;;;4971751;28;20586;-71
2022/12/25 00:56:37;;;;;;;2.05;1.88;;;7.90;99.90;;;;;;4971771;28;20211;-71
2022/12/25 00:59:04;;;;;;;4.32;2.25;;;7.90;99.90;;;;;;4971292;28;20232;-71
2022/12/25 01:01:31;;;;;;;2.78;2.50;;;7.90;99.90;;;;;;4971426;28;20752;-71
2022/12/25 01:04:00;;;;;;;6.15;3.10;;;7.90;99.90;;;;;;4971859;28;20203;-71
2022/12/25 01:06:26;;;;;;;5.18;2.47;;;7.90;99.90;;;;;;4971495;28;20211;-71
2022/12/25 01:11:37;;;;;;;5.40;2.08;;;7.90;99.90;;;;;;4974806;28;20319;-71
2022/12/25 01:14:04;;;;;;;3.10;2.20;;;7.90;99.90;;;;;;4975189;28;20199;-71
2022/12/25 01:16:31;;;;;;;2.35;2.17;;;7.90;99.90;;;;;;4975108;28;20219;-71
2022/12/25 01:18:59;;;;;;;3.17;2.10;;;7.90;99.90;;;;;;4974544;28;20618;-71
2022/12/25 01:21:26;;;;;;;2.22;1.92;;;7.90;99.90;;;;;;4975013;28;20226;-71
2022/12/25 01:23:53;;;;;;;2.13;1.90;;;8.00;99.90;;;;;;4975172;28;20210;-71
2022/12/25 01:26:22;;;;;;;2.50;2.30;;;8.00;99.90;;;;;;4974912;28;20671;-71
2022/12/25 01:28:49;;;;;;;2.47;2.17;;;8.00;99.90;;;;;;4974395;28;20252;-71
2022/12/25 01:31:18;;;;;;;1.83;1.73;;;8.00;99.90;;;;;;4974821;28;20211;-71
2022/12/25 01:33:45;;;;;;;2.55;2.13;;;8.00;99.90;;;;;;4975090;28;20205;-71
2022/12/25 01:36:15;;;;;;;2.30;1.95;;;8.00;99.90;;;;;;4974623;28;20203;-71
2022/12/25 01:38:42;;;;;;;2.85;2.00;;;7.90;99.90;;;;;;4974416;28;20241;-71
2022/12/25 01:41:10;;;;;;;2.40;1.90;;;7.90;99.90;;;;;;4974585;28;20231;-71
2022/12/25 01:43:57;;;;;;;3.20;1.90;;;7.90;99.90;;;;;;4974629;28;20216;-71
2022/12/25 01:46:24;;;;;;;2.10;1.83;;;7.90;99.90;;;;;;4974804;28;20199;-71
2022/12/25 01:48:52;;;;;;;2.30;1.90;;;7.90;99.90;;;;;;4974242;28;20234;-71
2022/12/25 01:51:26;;;;;;;2.40;1.60;;;8.00;99.90;;;;;;4974457;28;20202;-71
2022/12/25 01:53:54;;;;;;;1.58;1.48;;;7.90;99.90;;;;;;4974640;28;20216;-71
2022/12/25 01:56:21;;;;;;;2.03;1.25;;;7.90;99.90;;;;;;4974533;28;20233;-71
2022/12/25 01:58:48;;;;;;;2.03;1.30;;;7.90;99.90;;;;;;4974109;28;20226;-71
2022/12/25 02:01:14;;;;;;;2.58;1.83;;;7.90;99.90;;;;;;4974213;28;20235;-71
2022/12/25 02:03:42;;;;;;;3.00;1.58;;;8.00;99.90;;;;;;4974410;28;20204;-71
2022/12/25 02:06:08;;;;;;;2.60;1.80;;;8.00;99.90;;;;;;4974353;28;20690;-71
2022/12/25 02:08:37;;;;;;;3.25;2.17;;;8.00;99.90;;;;;;4973822;28;20700;-71
2022/12/25 02:11:03;;;;;;;2.35;1.40;;;8.00;99.90;;;;;;4974262;28;20204;-71
2022/12/25 02:13:30;;;;;;;2.28;1.63;;;8.00;99.90;;;;;;4974052;28;20681;-71
2022/12/25 02:16:09;;;;;;;2.17;1.52;;;8.00;99.90;;;;;;4974084;28;20805;-71
2022/12/25 02:18:46;;;;;;;2.50;2.15;;;8.00;99.90;;;;;;4973640;28;20224;-71
2022/12/25 02:21:34;;;;;;;2.22;2.03;;;8.00;99.90;;;;;;4955913;28;20224;-71
2022/12/25 02:24:27;;;;;;;1.50;1.40;;;8.00;99.90;;;;;;4954821;28;20208;-71
2022/12/25 02:27:02;;;;;;;2.10;1.70;;;7.90;99.90;;;;;;4954953;28;20598;-71
2022/12/25 02:29:39;;;;;;;2.10;1.90;;;7.90;99.90;;;;;;4954062;28;20208;-71
2022/12/25 02:32:15;;;;;;;1.92;1.60;;;7.80;99.90;;;;;;4954646;28;20213;-71
2022/12/25 02:34:47;;;;;;;4.57;1.80;;;7.80;99.90;;;;;;4954740;28;20211;-71
2022/12/25 02:37:19;;;;;;;3.00;1.83;;;7.80;99.90;;;;;;4954526;28;20221;-71
2022/12/25 02:40:00;;;;;;;1.98;1.77;;;7.80;99.90;;;;;;4953906;28;20700;-71
2022/12/25 03:07:47;;;;;;;2.25;2.03;;;7.70;99.90;;;;;;4954072;29;20222;-71
2022/12/25 03:13:04;;;;;;;3.00;2.05;;;7.70;99.90;;;;;;4954145;29;20195;-71
2022/12/25 03:18:23;;;;;;;3.65;2.50;;;7.70;99.90;;;;;;4953378;29;20279;-71
2022/12/25 03:29:05;;;;;;;3.72;3.35;;;7.60;99.90;;;;;;4953056;29;20223;-71
2022/12/25 03:31:40;;;;;;;7.25;3.70;;;7.60;99.90;;;;;;4953514;28;20211;-71
2022/12/25 04:38:07;;;;;;;3.45;3.08;;;7.30;99.90;;;;;;4952581;29;20227;-71
2022/12/25 04:40:35;;;;;;;3.05;2.80;;;7.30;99.90;;;;;;4952125;28;20221;-71
2022/12/25 04:43:02;;;;;;;4.15;3.45;;;7.30;99.90;;;;;;4952568;28;20215;-71
2022/12/25 04:45:29;;;;;;;4.45;3.55;;;7.30;99.90;;;;;;4955574;28;20208;-72
2022/12/25 04:47:58;;;;;;;3.92;3.63;;;7.30;99.90;;;;;;4956331;28;20704;-71
2022/12/25 04:50:25;;;;;;;4.47;3.38;;;7.30;99.90;;;;;;4955925;28;20600;-71
2022/12/25 04:52:51;;;;;;;4.40;3.45;;;7.30;99.90;;;;;;4956510;28;20208;-71
2022/12/25 04:55:18;;;;;;;4.97;3.35;;;7.30;99.90;;;;;;4956139;28;20211;-71
2022/12/25 04:57:46;;;;;;;3.30;3.00;;;7.30;99.90;;;;;;4956370;28;20221;-71
2022/12/25 05:00:14;;;;;;;3.75;3.25;;;7.30;99.90;;;;;;4955720;28;20229;-71
2022/12/25 05:02:40;;;;;;;3.50;3.20;;;7.30;99.90;;;;;;4956239;28;20568;-70
2022/12/25 05:05:07;;;;;;;3.60;3.30;;;7.30;99.90;;;;;;4956244;28;20212;-69
2022/12/25 05:07:34;;;;;;;4.55;4.15;;;7.30;99.90;;;;;;4956162;28;20291;-69
2022/12/25 05:10:01;;;;;;;3.97;3.55;;;7.30;99.90;;;;;;4955811;28;20208;-70
2022/12/25 05:12:27;;;;;;;3.97;3.50;;;7.30;99.90;;;;;;4956087;28;20201;-70
2022/12/25 05:14:55;;;;;;;3.80;3.40;;;7.30;99.90;;;;;;4956468;28;20219;-70
2022/12/25 05:17:22;;;;;;;3.38;3.05;;;7.30;99.90;;;;;;4955906;28;20227;-70
2022/12/25 05:19:49;;;;;;;4.25;3.25;;;7.30;99.90;;;;;;4955408;28;20205;-70
2022/12/25 05:22:15;;;;;;;4.18;3.78;;;7.30;99.90;;;;;;4955870;28;20243;-70
2022/12/25 05:24:42;;;;;;;3.72;3.40;;;7.30;99.90;;;;;;4956009;28;20213;-70
2022/12/25 05:27:09;;;;;;;3.35;3.05;;;7.30;99.90;;;;;;4955651;28;20680;-70
2022/12/25 05:29:35;;;;;;;3.10;2.80;;;7.30;99.90;;;;;;4955308;28;20212;-70
2022/12/25 05:32:04;;;;;;;5.22;3.13;;;7.30;99.90;;;;;;4955767;28;20211;-70
2022/12/25 05:34:30;;;;;;;3.42;2.75;;;7.40;99.90;;;;;;4955599;28;20209;-70
2022/12/25 05:36:57;;;;;;;2.83;2.50;;;7.40;99.90;;;;;;4955897;28;20205;-70
2022/12/25 05:39:24;;;;;;;3.15;2.85;;;7.40;99.90;;;;;;4955110;28;20602;-70
2022/12/25 05:41:50;;;;;;;2.55;2.35;;;7.40;99.90;;;;;;4955577;28;20250;-70
2022/12/25 05:44:17;;;;;;;3.40;2.97;;;7.40;99.90;;;;;;4955320;28;20213;-70
2022/12/25 05:46:44;;;;;;;4.00;3.20;;;7.40;99.90;;;;;;4955368;28;20215;-69
2022/12/25 05:49:12;;;;;;;4.20;3.72;;;7.40;99.90;;;;;;4954564;28;20294;-70
2022/12/25 05:51:39;;;;;;;3.55;3.25;;;7.40;99.90;;;;;;4955375;28;20622;-71
2022/12/25 05:54:06;;;;;;;4.43;3.38;;;7.40;99.90;;;;;;4955155;28;20228;-71
2022/12/25 05:56:32;;;;;;;3.55;2.70;;;7.40;99.90;;;;;;4952182;28;20209;-71
2022/12/25 05:58:59;;;;;;;3.30;2.92;;;7.40;99.90;;;;;;4944184;29;20225;-71
2022/12/25 06:01:28;;;;;;;3.83;3.15;;;7.40;99.90;;;;;;4944555;28;20229;-71
2022/12/25 06:03:54;;;;;;;3.35;2.80;;;7.40;99.90;;;;;;4944185;28;20200;-71
2022/12/25 06:06:22;;;;;;;3.63;3.33;;;7.40;99.90;;;;;;4944826;29;20232;-71
2022/12/25 06:08:49;;;;;;;4.05;3.65;;;7.40;99.90;;;;;;4942987;29;20213;-71
2022/12/25 06:11:16;;;;;;;3.60;3.20;;;7.40;99.90;;;;;;4943737;28;20244;-71
2022/12/25 06:13:43;;;;;;;4.00;3.33;;;7.40;99.90;;;;;;4945022;29;20220;-71
2022/12/25 06:16:11;;;;;;;3.90;3.60;;;7.40;99.90;;;;;;4942482;29;20208;-71
2022/12/25 06:18:40;;;;;;;3.38;3.05;;;7.40;99.90;;;;;;4944041;28;20224;-71
2022/12/25 06:21:08;;;;;;;3.90;3.20;;;7.40;99.90;;;;;;4945704;29;20233;-71
2022/12/25 06:23:36;;;;;;;3.35;3.05;;;7.40;99.90;;;;;;4944234;29;20222;-71
2022/12/25 06:26:04;;;;;;;5.00;2.97;;;7.40;99.90;;;;;;4944430;28;20204;-71
2022/12/25 06:28:31;;;;;;;3.10;2.80;;;7.40;99.90;;;;;;4944950;28;20280;-71
2022/12/25 06:30:58;;;;;;;3.63;2.97;;;7.40;99.90;;;;;;4944589;29;20209;-71
2022/12/25 06:33:25;;;;;;;4.18;2.90;;;7.40;99.90;;;;;;4943646;28;20208;-71
2022/12/25 06:35:51;;;;;;;3.85;3.25;;;7.50;99.90;;;;;;4943582;29;20213;-71
2022/12/25 06:38:18;;;;;;;2.90;2.60;;;7.40;99.90;;;;;;4943833;28;20228;-71
2022/12/25 06:40:46;;;;;;;7.03;3.17;;;7.40;99.90;;;;;;4944706;29;20216;-71
2022/12/25 06:43:13;;;;;;;2.80;2.45;;;7.40;99.90;;;;;;4942377;29;20223;-71
2022/12/25 06:45:40;;;;;;;3.25;2.85;;;7.40;99.90;;;;;;4943369;28;20607;-71
2022/12/25 06:48:06;;;;;;;3.17;2.25;;;7.40;99.90;;;;;;4944206;29;20251;-71
2022/12/25 06:50:33;;;;;;;3.80;3.13;;;7.40;99.90;;;;;;4942332;29;20212;-71
2022/12/25 06:53:00;;;;;;;3.45;2.85;;;7.40;99.90;;;;;;4943255;28;20842;-71
2022/12/25 06:55:26;;;;;;;3.95;2.58;;;7.40;99.90;;;;;;4944067;29;20298;-71
2022/12/25 06:57:54;;;;;;;7.18;2.55;;;7.40;99.90;;;;;;4942260;29;20224;-71
2022/12/25 07:00:21;;;;;;;3.45;3.10;;;7.40;99.90;;;;;;4942088;28;20607;-71
2022/12/25 07:02:49;;;;;;;3.53;2.30;;;7.40;99.90;;;;;;4944040;29;20224;-71
2022/12/25 07:05:16;;;;;;;2.50;2.22;;;7.40;99.90;;;;;;4942465;29;20201;-70
2022/12/25 07:07:42;;;;;;;2.60;2.20;;;7.40;99.90;;;;;;4941331;28;20301;-70
2022/12/25 07:10:10;;;;;;;2.65;2.42;;;7.40;99.90;;;;;;4943168;28;20202;-70
2022/12/25 07:12:36;;;;;;;2.63;2.22;;;7.40;99.90;;;;;;4942761;29;20552;-69
2022/12/25 07:15:05;;;;;;;3.08;2.78;;;7.40;99.90;;;;;;4942291;28;20216;-70
2022/12/25 07:17:34;;;;;;;2.80;2.35;;;7.40;99.90;;;;;;4933775;29;20291;-69
2022/12/25 07:20:01;;;;;;;3.00;2.45;;;7.40;99.90;;;;;;4933807;29;20573;-70
2022/12/25 07:22:28;;;;;;;2.63;2.42;;;7.40;99.90;;;;;;4934242;29;20231;-70
2022/12/25 07:24:55;;;;;;;2.42;2.22;;;7.50;99.90;;;;;;4934413;29;20232;-70
2022/12/25 07:27:22;;;;;;;1.90;1.80;;;7.50;99.90;;;;;;4934069;29;20642;-70
2022/12/25 07:29:49;;;;;;;2.25;2.05;;;7.40;99.90;;;;;;4933762;29;20209;-70
2022/12/25 07:32:17;;;;;;;2.90;2.15;;;7.50;99.90;;;;;;4934136;29;20574;-70
2022/12/25 07:34:44;;;;;;;2.38;2.10;;;7.50;99.90;;;;;;4934171;29;20209;-70
2022/12/25 07:37:11;;;;;;;2.25;1.83;;;7.50;99.90;;;;;;4945151;28;20313;-70
2022/12/25 07:39:38;;;;;;;2.25;2.05;;;7.50;99.90;;;;;;4972088;28;20659;-69
2022/12/25 07:42:04;;;;;;;2.00;1.80;;;7.50;99.90;;;;;;4972723;28;20227;-70
2022/12/25 07:44:31;;;;;;;2.25;1.75;;;7.50;99.90;;;;;;4972358;28;20216;-71
2022/12/25 07:46:58;;;;;;;1.55;1.42;;;7.50;99.90;;;;;;4972376;28;20212;-70
2022/12/25 07:49:26;;;;;;;3.97;2.13;;;7.60;99.90;;;;;;4971545;28;21014;-69
2022/12/25 07:51:53;;;;;;;2.42;2.00;;;7.60;99.90;;;;;;4972132;28;20207;-70
2022/12/25 07:54:19;;;;;;;2.03;1.88;;;7.60;99.90;;;;;;4972301;28;20203;-70
2022/12/25 07:56:49;;;;;;;1.60;1.50;;;7.60;99.90;;;;;;4972613;28;20643;-70
2022/12/25 07:59:16;;;;;;;2.33;1.50;;;7.70;99.90;;;;;;4966430;28;20212;-70
2022/12/25 08:01:43;;;;;;;6.43;2.42;;;7.70;99.90;;;;;;4953034;28;20228;-70
2022/12/25 08:04:10;;;;;;;1.83;1.73;;;7.70;99.90;;;;;;4952619;28;20201;-69
2022/12/25 08:06:38;;;;;;;1.52;1.40;;;7.80;99.90;;;;;;4953122;28;20212;-70
2022/12/25 08:09:07;;;;;;;2.10;1.90;;;7.90;99.90;;;;;;4952300;28;20614;-70
2022/12/25 08:11:34;;;;;;;2.63;2.25;;;7.90;99.90;;;;;;4953084;28;20257;-70
2022/12/25 08:14:01;;;;;;;3.85;2.00;;;8.00;99.90;;;;;;4952784;28;20582;-70
2022/12/25 08:16:28;;;;;;;2.13;1.95;;;8.00;99.90;;;;;;4952852;28;20208;-69
2022/12/25 08:18:55;;;;;;;2.97;2.08;;;8.10;99.90;;;;;;4949813;28;20232;-70
2022/12/25 08:21:21;;;;;;;2.33;2.00;;;8.10;99.90;;;;;;4951796;28;20595;-69
2022/12/25 08:23:49;;;;;;;2.38;2.17;;;8.20;99.90;;;;;;4951600;28;20224;-69
2022/12/25 08:26:18;;;;;;;2.63;1.92;;;8.40;99.90;;;;;;4951809;28;20204;-70
2022/12/25 08:28:45;;;;;;;1.67;1.58;;;8.70;99.90;;;;;;4951291;28;20236;-69
2022/12/25 08:31:16;;;;;;;2.67;1.90;;;9.10;99.90;;;;;;4951537;28;20213;-69
2022/12/25 08:33:43;;;;;;;2.15;1.85;;;9.60;99.90;;;;;;4951814;28;20208;-69
2022/12/25 08:36:11;;;;;;;1.88;1.70;;;10.10;99.90;;;;;;4951629;28;20212;-69
2022/12/25 08:38:38;;;;;;;1.50;1.40;;;10.50;99.90;;;;;;4951234;28;20847;-69
2022/12/25 08:41:07;;;;;;;2.25;2.05;;;10.80;99.90;;;;;;4951572;28;20211;-69
2022/12/25 08:43:34;;;;;;;2.00;1.90;;;10.90;99.90;;;;;;4951460;28;20238;-69
2022/12/25 08:46:00;;;;;;;1.90;1.65;;;10.90;99.90;;;;;;4951589;28;20204;-69
2022/12/25 08:48:27;;;;;;;1.85;1.63;;;10.80;99.90;;;;;;4951002;28;20224;-69
2022/12/25 08:50:54;;;;;;;2.75;1.90;;;10.80;99.90;;;;;;4951739;28;20215;-69
2022/12/25 08:53:21;;;;;;;1.70;1.60;;;10.80;99.90;;;;;;4951029;28;20204;-68
2022/12/25 08:55:48;;;;;;;1.85;1.52;;;10.70;99.90;;;;;;4950256;28;20219;-70
2022/12/25 08:58:16;;;;;;;1.58;1.30;;;10.60;99.90;;;;;;4954517;28;20236;-69
2022/12/25 09:00:43;;;;;;;2.13;2.00;;;10.30;99.90;;;;;;4947367;28;20205;-69
2022/12/25 09:03:10;;;;;;;1.90;1.70;;;10.10;99.90;;;;;;4945452;28;20227;-69
2022/12/25 09:05:38;;;;;;;2.78;1.73;;;10.00;99.90;;;;;;4951658;29;20299;-69
2022/12/25 09:08:05;;;;;;;2.60;1.90;;;9.80;99.90;;;;;;4951520;29;20311;-69
2022/12/25 09:10:35;;;;;;;2.30;1.90;;;9.90;99.90;;;;;;4950810;29;20251;-69
2022/12/25 09:13:03;;;;;;;2.85;2.65;;;9.90;99.90;;;;;;4952202;28;20216;-69
2022/12/25 09:15:32;;;;;;;3.17;2.88;;;10.00;99.90;;;;;;4950856;29;20827;-69
2022/12/25 09:17:59;;;;;;;3.15;2.42;;;10.20;99.90;;;;;;4949140;28;20324;-68
2022/12/25 09:20:26;;;;;;;2.40;2.05;;;10.40;99.90;;;;;;4950242;28;20228;-70
2022/12/25 09:22:53;;;;;;;3.17;1.63;;;10.60;99.90;;;;;;4949144;28;20236;-69
2022/12/25 09:25:20;;;;;;;1.85;1.70;;;10.90;99.90;;;;;;4950617;28;20271;-70
2022/12/25 09:27:47;;;;;;;1.40;1.30;;;11.10;99.90;;;;;;4956758;28;20243;-67
2022/12/25 09:30:15;;;;;;;1.90;1.50;;;12.10;99.90;;;;;;4969966;28;20302;-69
2022/12/25 09:32:43;;;;;;;2.00;1.60;;;14.00;99.90;;;;;;4973490;28;20213;-70
2022/12/25 09:35:12;;;;;;;1.63;1.20;;;15.80;99.90;;;;;;4973953;28;20562;-69
2022/12/25 09:37:39;;;;;;;1.70;1.40;;;17.20;99.90;;;;;;4974129;28;20511;-69
2022/12/25 09:40:08;;;;;;;1.63;1.13;;;18.00;99.90;;;;;;4973105;28;20471;-68
2022/12/25 09:42:35;;;;;;;1.93;1.30;;;19.00;99.90;;;;;;4973380;28;20494;-69
2022/12/25 09:45:10;;;;;;;1.37;1.27;;;19.70;99.90;;;;;;4973435;28;20478;-69
2022/12/25 09:47:40;;;;;;;2.03;1.40;;;20.90;99.90;;;;;;4946125;28;20499;-68
2022/12/25 09:50:14;;;;;;;1.70;1.50;;;22.20;99.90;;;;;;4948965;28;20492;-67
2022/12/25 09:52:46;;;;;;;1.40;1.30;;;23.20;99.90;;;;;;4950365;29;20461;-68
2022/12/25 09:55:17;;;;;;;1.37;1.27;;;23.30;99.90;;;;;;4951257;28;21042;-67
2022/12/25 09:57:45;;;;;;;1.97;1.57;;;24.00;99.90;;;;;;4970495;28;20488;-67
2022/12/25 10:00:15;;;;;;;1.30;1.10;;;23.90;99.90;;;;;;4969937;28;20494;-68
2022/12/25 10:03:04;;;;;;;1.70;1.40;;;24.00;99.90;;;;;;4970628;28;20847;-68
2022/12/25 10:05:53;;;;;;;2.30;1.40;;;24.90;99.90;;;;;;4961826;28;20874;-68
2022/12/25 10:08:30;;;;;;;1.40;1.30;;;25.40;99.90;;;;;;4953522;28;20487;-68
2022/12/25 10:11:03;;;;;;;1.87;1.43;;;26.60;99.90;;;;;;4954138;28;20468;-68
2022/12/25 10:13:53;;;;;;;1.40;1.20;;;27.60;99.20;;;;;;4953327;28;20555;-68
2022/12/25 10:16:28;;;;;;;1.33;1.23;;;27.40;97.10;;;;;;4953652;28;20483;-67
2022/12/25 10:19:24;;;;;;;2.50;1.30;;;27.90;97.40;;;;;;4953189;28;21058;-68
2022/12/25 10:21:57;;;;;;;1.47;1.10;;;29.30;96.60;;;;;;4952507;29;20476;-68
2022/12/25 10:24:33;;;;;;;1.47;1.27;;;30.60;94.50;;;;;;4953817;29;20895;-68
2022/12/25 10:27:03;;;;;;;1.10;1.00;;;30.40;92.80;;;;;;4953725;29;20550;-68
2022/12/25 10:29:32;;;;;;;1.70;1.37;;;29.30;93.50;;;;;;4952972;29;20464;-68
2022/12/25 10:32:00;;;;;;;1.63;1.27;;;27.80;94.40;;;;;;4953713;29;20507;-67
2022/12/25 10:34:28;;;;;;;2.10;1.37;;;26.20;96.00;;;;;;4953101;29;20471;-68
2022/12/25 10:36:58;;;;;;;1.70;1.10;;;25.60;96.40;;;;;;4953845;28;20605;-68
2022/12/25 10:39:26;;;;;;;1.83;1.53;;;25.00;97.20;;;;;;4953041;28;20534;-67
2022/12/25 10:42:23;;;;;;;1.60;1.30;;;23.80;97.90;;;;;;4953071;28;20503;-68
2022/12/25 10:44:56;;;;;;;1.20;1.10;;;23.10;98.90;;;;;;4953669;29;20523;-70
2022/12/25 10:47:27;;;;;;;1.53;1.43;;;22.90;98.70;;;;;;4953165;29;20489;-69
2022/12/25 10:49:54;;;;;;;1.93;1.30;;;23.20;98.90;;;;;;4952503;28;20466;-69
2022/12/25 10:52:25;;;;;;;1.67;1.57;;;23.70;98.20;;;;;;4953434;28;20468;-69
2022/12/25 10:54:53;;;;;;;1.37;1.27;;;22.60;98.90;;;;;;4953088;28;20468;-69
2022/12/25 10:57:23;;;;;;;2.00;1.53;;;20.80;99.90;;;;;;4952833;28;20789;-69
2022/12/25 10:59:54;;;;;;;1.47;1.37;;;20.20;99.90;;;;;;4953228;28;20470;-70
2022/12/25 11:02:24;;;;;;;1.57;1.40;;;20.10;99.90;;;;;;4952754;28;20551;-69
2022/12/25 11:05:00;;;;;;;1.63;1.50;;;19.40;99.90;;;;;;4956959;28;20460;-67
2022/12/25 11:07:29;;;;;;;1.60;1.50;;;18.50;99.90;;;;;;4951676;28;20554;-67
2022/12/25 11:10:00;;;;;;;1.67;1.43;;;17.30;99.90;;;;;;4951524;28;20596;-67
2022/12/25 11:12:32;;;;;;;2.00;1.80;;;16.50;99.90;;;;;;4951647;28;20983;-69
2022/12/25 11:15:06;;;;;;;1.50;1.30;;;16.20;99.90;;;;;;4952432;28;20968;-69
2022/12/25 11:17:36;;;;;;;10.93;1.90;;;16.10;99.90;;;;;;4952618;28;20527;-67
2022/12/25 11:20:03;;;;;;;1.60;1.50;;;16.50;99.90;;;;;;4951176;28;20472;-67
2022/12/25 11:22:37;;;;;;;1.77;1.43;;;17.90;99.90;;;;;;4952290;28;20459;-67
2022/12/25 11:25:13;;;;;;;1.70;1.60;;;19.80;99.90;;;;;;4952404;28;20923;-68
2022/12/25 11:27:40;;;;;;;1.60;1.40;;;20.20;99.90;;;;;;4952225;28;21139;-67
2022/12/25 11:30:11;;;;;;;2.13;1.70;;;20.00;99.90;;;;;;4951652;28;20477;-67
2022/12/25 11:32:43;;;;;;;2.10;1.67;;;19.00;99.90;;;;;;4951701;28;20470;-67
2022/12/25 11:35:13;;;;;;;2.50;1.63;;;19.00;99.90;;;;;;4952345;28;20566;-67
2022/12/25 11:37:45;;;;;;;2.00;1.87;;;19.40;99.90;;;;;;4952147;28;20523;-67
2022/12/25 11:40:16;;;;;;;3.03;1.93;;;19.70;99.90;;;;;;4950561;28;20472;-67
2022/12/25 11:42:48;;;;;;;2.20;1.70;;;19.80;99.90;;;;;;4954859;28;20467;-67
2022/12/25 11:45:19;;;;;;;2.03;1.83;;;19.40;99.90;;;;;;4970673;28;20478;-66
2022/12/25 11:47:50;;;;;;;1.60;1.50;;;18.90;99.90;;;;;;4953173;28;20494;-68
2022/12/25 11:50:25;;;;;;;2.00;1.80;;;18.40;99.90;;;;;;4950175;28;20468;-67
2022/12/25 11:52:54;;;;;;;1.53;1.43;;;17.80;99.90;;;;;;4946137;28;20459;-70
2022/12/25 11:55:28;;;;;;;2.23;1.80;;;17.60;99.90;;;;;;4950259;28;20468;-69
2022/12/25 11:58:00;;;;;;;2.80;1.70;;;17.30;99.90;;;;;;4950571;28;20517;-69
2022/12/25 12:00:30;;;;;;;2.47;1.90;;;17.50;99.90;;;;;;4950469;28;20472;-69
2022/12/25 12:03:01;;;;;;;2.70;1.60;;;17.70;99.90;;;;;;4950785;28;20499;-69
2022/12/25 12:05:34;;;;;;;1.33;1.23;;;18.30;99.90;;;;;;4950981;28;20844;-69
2022/12/25 12:08:05;;;;;;;2.10;1.87;;;18.40;99.90;;;;;;4949958;28;20484;-69
2022/12/25 12:10:57;;;;;;;1.60;1.50;;;18.70;99.90;;;;;;4948372;28;20483;-68
2022/12/25 12:13:36;;;;;;;1.93;1.60;;;18.70;99.90;;;;;;4946158;28;20469;-69
2022/12/25 12:16:04;;;;;;;3.63;1.77;;;18.30;99.90;;;;;;4950673;28;20464;-68
2022/12/25 12:18:32;;;;;;;1.47;1.27;;;17.60;99.90;;;;;;4950113;28;21414;-69
2022/12/25 12:21:01;;;;;;;1.50;1.40;;;16.90;99.90;;;;;;4950046;28;20479;-69
2022/12/25 12:23:32;;;;;;;2.30;1.77;;;16.40;99.90;;;;;;4950876;28;20491;-69
2022/12/25 12:26:00;;;;;;;2.40;1.90;;;16.60;99.90;;;;;;4950170;28;20472;-69
2022/12/25 12:28:32;;;;;;;1.80;1.57;;;17.00;99.90;;;;;;4949854;28;20859;-69
2022/12/25 12:31:02;;;;;;;1.83;1.53;;;17.30;99.90;;;;;;4950865;28;20842;-69
2022/12/25 12:33:33;;;;;;;3.00;1.50;;;17.20;99.90;;;;;;4950159;28;20476;-69
2022/12/25 12:36:01;;;;;;;1.47;1.37;;;17.00;99.90;;;;;;4950128;28;20465;-69
2022/12/25 12:38:30;;;;;;;1.93;1.70;;;16.90;99.90;;;;;;4949716;28;20814;-69
2022/12/25 12:41:00;;;;;;;2.23;1.47;;;16.80;99.90;;;;;;4950735;28;20468;-69
2022/12/25 12:43:31;;;;;;;1.70;1.50;;;17.10;99.90;;;;;;4950045;28;21208;-69
2022/12/25 12:46:03;;;;;;;2.47;1.87;;;17.30;99.90;;;;;;4950087;28;20554;-69
2022/12/25 12:48:36;;;;;;;1.70;1.60;;;17.80;99.90;;;;;;4949928;28;20492;-69
2022/12/25 12:51:05;;;;;;;2.40;1.47;;;18.00;99.90;;;;;;4950137;28;20468;-68
2022/12/25 12:53:34;;;;;;;2.00;1.80;;;18.00;99.90;;;;;;4950408;28;20472;-69
2022/12/25 12:56:14;;;;;;;1.87;1.43;;;18.00;99.90;;;;;;4949997;28;20463;-69
2022/12/25 12:58:47;;;;;;;1.60;1.50;;;17.90;99.90;;;;;;4949129;28;20512;-69
2022/12/25 13:01:27;;;;;;;1.80;1.70;;;17.60;99.90;;;;;;4950546;28;20523;-69
2022/12/25 13:04:30;;;;;;;1.80;1.40;;;17.50;99.90;;;;;;4950456;28;20484;-69
2022/12/25 13:07:10;;;;;;;1.63;1.50;;;17.20;99.90;;;;;;4952820;28;20865;-69
2022/12/25 13:09:51;;;;;;;1.50;1.40;;;17.10;99.90;;;;;;4954363;28;20535;-68
2022/12/25 13:12:19;;;;;;;1.90;1.70;;;17.10;99.90;;;;;;4954704;28;20463;-69
2022/12/25 13:14:48;;;;;;;1.67;1.50;;;17.00;99.90;;;;;;4954642;28;20464;-69
2022/12/25 13:17:19;;;;;;;1.80;1.30;;;17.00;99.90;;;;;;4954574;28;20963;-69
2022/12/25 13:19:46;;;;;;;1.93;1.73;;;17.10;99.90;;;;;;4954343;28;20833;-69
2022/12/25 13:22:24;;;;;;;1.97;1.40;;;17.50;99.90;;;;;;4954259;28;20456;-68
2022/12/25 13:24:57;;;;;;;3.50;1.50;;;18.00;99.90;;;;;;4954643;28;20820;-69
2022/12/25 13:27:25;;;;;;;2.33;1.60;;;18.30;99.90;;;;;;4954276;28;20487;-68
2022/12/25 13:29:52;;;;;;;2.10;1.80;;;18.30;99.90;;;;;;4953736;28;20460;-69
2022/12/25 13:32:23;;;;;;;1.37;1.27;;;17.80;99.90;;;;;;4954209;28;20470;-69
2022/12/25 13:34:50;;;;;;;1.93;1.27;;;17.30;99.90;;;;;;4954221;28;20611;-68
2022/12/25 13:37:19;;;;;;;1.50;1.40;;;16.90;99.90;;;;;;4953643;28;20519;-69
2022/12/25 13:39:50;;;;;;;1.53;1.43;;;16.50;99.90;;;;;;4953638;28;20472;-68
2022/12/25 13:42:20;;;;;;;1.77;1.30;;;16.10;99.90;;;;;;4953957;28;20505;-68
2022/12/25 13:44:50;;;;;;;1.67;1.20;;;15.90;99.90;;;;;;4955416;28;20495;-68
2022/12/25 13:47:20;;;;;;;1.70;1.60;;;15.60;99.90;;;;;;4971742;28;20471;-68
2022/12/25 13:49:48;;;;;;;2.23;1.67;;;15.50;99.90;;;;;;4970457;28;20903;-68
2022/12/25 13:52:19;;;;;;;1.50;1.40;;;15.40;99.90;;;;;;4973275;28;20474;-68
2022/12/25 13:54:57;;;;;;;1.27;1.17;;;15.40;99.90;;;;;;4973528;28;20476;-68
2022/12/25 13:57:29;;;;;;;1.87;1.60;;;15.30;99.90;;;;;;4973138;28;20482;-69
2022/12/25 13:59:56;;;;;;;1.70;1.57;;;15.30;99.90;;;;;;4972834;28;20861;-69
2022/12/25 14:02:28;;;;;;;2.10;1.60;;;15.20;99.90;;;;;;4973822;28;20463;-69
2022/12/25 14:04:55;;;;;;;2.10;1.97;;;15.10;99.90;;;;;;4972564;28;20502;-69
2022/12/25 14:07:24;;;;;;;2.47;1.80;;;15.20;99.90;;;;;;4972924;28;20490;-69
2022/12/25 14:09:54;;;;;;;2.13;1.93;;;15.10;99.90;;;;;;4971690;28;21029;-69
2022/12/25 14:12:22;;;;;;;1.67;1.57;;;15.10;99.90;;;;;;4972657;28;20479;-68
2022/12/25 14:14:52;;;;;;;1.63;1.50;;;15.00;99.90;;;;;;4973047;28;20496;-69
2022/12/25 14:17:20;;;;;;;1.67;1.57;;;15.00;99.90;;;;;;4960469;28;20472;-69
2022/12/25 14:19:55;;;;;;;1.97;1.53;;;14.90;99.90;;;;;;4952987;28;20471;-69
2022/12/25 14:22:22;;;;;;;1.90;1.50;;;14.80;99.90;;;;;;4953367;28;20472;-68
2022/12/25 14:24:49;;;;;;;1.63;1.53;;;14.70;99.90;;;;;;4952820;28;20855;-68
2022/12/25 14:27:19;;;;;;;2.27;1.70;;;14.60;99.90;;;;;;4952441;28;20483;-69
2022/12/25 14:29:48;;;;;;;1.70;1.60;;;14.60;99.90;;;;;;4953161;28;20471;-68
2022/12/25 14:32:19;;;;;;;1.90;1.60;;;14.50;99.90;;;;;;4952861;28;20484;-69
2022/12/25 14:34:49;;;;;;;1.53;1.43;;;14.40;99.90;;;;;;4952743;28;20964;-69
2022/12/25 14:37:19;;;;;;;1.93;1.73;;;14.30;99.90;;;;;;4952105;28;20478;-68
2022/12/25 14:39:53;;;;;;;2.83;1.90;;;14.20;99.90;;;;;;4952778;28;20992;-69
2022/12/25 14:42:22;;;;;;;2.53;2.20;;;14.10;99.90;;;;;;4952846;28;20842;-69
2022/12/25 14:45:02;;;;;;;3.10;2.47;;;14.00;99.90;;;;;;4952651;28;20487;-69
2022/12/25 14:47:31;;;;;;;3.50;2.50;;;13.90;99.90;;;;;;4952847;28;20547;-68
2022/12/25 14:49:58;;;;;;;5.07;3.00;;;13.70;99.90;;;;;;4951344;28;20465;-69
2022/12/25 14:52:27;;;;;;;2.90;2.40;;;13.60;99.90;;;;;;4952875;28;20473;-68